createdAt,value
2019-06-08T00:00:50.748Z,96717.16
2019-06-08T00:03:20.700Z,96709.64
2019-06-08T00:05:46.629Z,96723.67
2019-06-08T00:08:16.768Z,96728.91
2019-06-08T00:10:42.919Z,96747.77
2019-06-08T00:13:08.789Z,96736.73
2019-06-08T00:15:34.583Z,96733.45
2019-06-08T00:18:03.335Z,96709.91
2019-06-08T00:20:29.161Z,96716.43
2019-06-08T00:23:02.586Z,96712.66
2019-06-08T00:25:28.437Z,96708.09
2019-06-08T00:27:54.547Z,96706.55
2019-06-08T00:30:21.179Z,96706.92
2019-06-08T00:32:47.010Z,96711.78
2019-06-08T00:35:14.481Z,96712.14
2019-06-08T00:37:40.359Z,96724.67
2019-06-08T00:40:06.452Z,96723.70
2019-06-08T00:42:32.289Z,96740.46
2019-06-08T00:45:01.229Z,96739.73
2019-06-08T00:47:44.954Z,96752.09
2019-06-08T00:49:54.792Z,96739.08
2019-06-08T00:52:21.063Z,96737.72
2019-06-08T00:54:49.952Z,96750.09
2019-06-08T00:57:15.779Z,96773.73
2019-06-08T00:59:44.491Z,96758.39
2019-06-08T01:02:10.317Z,96765.09
2019-06-08T01:04:36.120Z,96766.62
2019-06-08T01:07:02.020Z,96772.98
2019-06-08T01:09:27.850Z,96764.64
2019-06-08T01:11:56.698Z,96759.83
2019-06-08T01:14:22.951Z,96764.33
2019-06-08T01:16:51.598Z,96761.41
2019-06-08T01:19:19.089Z,96788.47
2019-06-08T01:21:44.986Z,96804.58
2019-06-08T01:24:10.805Z,96821.44
2019-06-08T01:26:40.332Z,96819.68
2019-06-08T01:29:06.571Z,96822.20
2019-06-08T01:31:35.134Z,96776.80
2019-06-08T01:34:00.954Z,96809.27
2019-06-08T01:36:29.576Z,96819.40
2019-06-08T01:38:55.390Z,96858.88
2019-06-08T01:41:21.371Z,96839.53
2019-06-08T01:43:47.219Z,96839.26
2019-06-08T01:46:13.025Z,96838.47
2019-06-08T01:48:42.014Z,96835.77
2019-06-08T01:51:07.942Z,96842.02
2019-06-08T01:53:36.497Z,96836.86
2019-06-08T01:56:02.304Z,96826.66
2019-06-08T01:58:31.447Z,96818.63
2019-06-08T02:00:57.361Z,96831.47
2019-06-08T02:03:26.393Z,96833.45
2019-06-08T02:05:52.511Z,96819.41
2019-06-08T02:08:21.097Z,96800.01
2019-06-08T02:10:46.896Z,96810.88
2019-06-08T02:13:15.763Z,96814.53
2019-06-08T02:15:41.943Z,96809.89
2019-06-08T02:18:07.876Z,96816.14
2019-06-08T02:20:35.205Z,96826.59
2019-06-08T02:23:01.122Z,96831.05
2019-06-08T02:25:27.337Z,96828.58
2019-06-08T02:27:53.926Z,96825.96
2019-06-08T02:30:30.581Z,96867.11
2019-06-08T02:32:57.848Z,96878.16
2019-06-08T02:35:23.684Z,96871.76
2019-06-08T02:37:49.766Z,96857.70
2019-06-08T02:40:15.908Z,96838.70
2019-06-08T02:42:41.725Z,96832.10
2019-06-08T02:45:07.703Z,96840.62
2019-06-08T02:47:34.491Z,96836.53
2019-06-08T02:50:00.308Z,96836.53
2019-06-08T02:52:27.323Z,96846.74
2019-06-08T02:54:54.458Z,96848.82
2019-06-08T02:57:22.017Z,96858.50
2019-06-08T02:59:48.215Z,96865.44
2019-06-08T03:02:16.016Z,96862.65
2019-06-08T03:04:41.820Z,96884.98
2019-06-08T03:07:08.512Z,96871.06
2019-06-08T03:09:36.503Z,96878.14
2019-06-08T03:12:03.085Z,96876.63
2019-06-08T03:14:31.046Z,96883.96
2019-06-08T03:16:57.000Z,96895.81
2019-06-08T03:19:23.238Z,96878.38
2019-06-08T03:21:52.130Z,96888.38
2019-06-08T03:24:17.980Z,96894.97
2019-06-08T03:26:46.807Z,96904.72
2019-06-08T03:29:12.641Z,96917.62
2019-06-08T03:31:46.467Z,96914.39
2019-06-08T03:34:06.152Z,96920.67
2019-06-08T03:36:34.938Z,96925.63
2019-06-08T03:38:59.772Z,96917.52
2019-06-08T03:41:25.572Z,96915.00
2019-06-08T03:43:51.673Z,96913.54
2019-06-08T03:46:17.493Z,96937.66
2019-06-08T03:48:46.573Z,96946.23
2019-06-08T03:51:12.456Z,96938.77
2019-06-08T03:53:44.401Z,96923.55
2019-06-08T03:56:10.253Z,96944.53
2019-06-08T03:58:37.102Z,96940.41
2019-06-08T04:01:04.025Z,96944.60
2019-06-08T04:03:31.219Z,96947.66
2019-06-08T04:05:57.056Z,96948.33
2019-06-08T04:08:22.887Z,96946.94
2019-06-08T04:10:50.241Z,96950.47
2019-06-08T04:13:16.179Z,96957.45
2019-06-08T04:15:42.631Z,96951.41
2019-06-08T04:18:09.696Z,96953.72
2019-06-08T04:20:40.064Z,96954.47
2019-06-08T04:23:06.319Z,96967.33
2019-06-08T04:25:32.428Z,96963.66
2019-06-08T04:27:58.214Z,96959.08
2019-06-08T04:30:29.218Z,96933.28
2019-06-08T04:32:55.297Z,96968.11
2019-06-08T04:35:21.354Z,96958.30
2019-06-08T04:37:47.216Z,96966.63
2019-06-08T04:40:16.400Z,96978.90
2019-06-08T04:42:44.418Z,96993.62
2019-06-08T04:45:10.357Z,96978.72
2019-06-08T04:47:36.376Z,96984.48
2019-06-08T04:50:21.942Z,96988.05
2019-06-08T04:52:34.302Z,96986.28
2019-06-08T04:55:00.134Z,96991.38
2019-06-08T04:57:26.175Z,97000.38
2019-06-08T04:59:52.282Z,97006.69
2019-06-08T05:02:18.357Z,97009.95
2019-06-08T05:04:45.331Z,97015.08
2019-06-08T05:07:12.334Z,97013.71
2019-06-08T05:09:39.066Z,97008.92
2019-06-08T05:12:08.107Z,97028.49
2019-06-08T05:14:33.965Z,97036.27
2019-06-08T05:17:03.109Z,97031.19
2019-06-08T05:19:29.230Z,97047.00
2019-06-08T05:21:55.054Z,97046.43
2019-06-08T05:24:21.076Z,97052.20
2019-06-08T05:26:47.378Z,97055.55
2019-06-08T05:29:13.504Z,97054.40
2019-06-08T05:31:39.442Z,97064.61
2019-06-08T05:34:08.297Z,97061.05
2019-06-08T05:36:34.142Z,97075.50
2019-06-08T05:39:05.538Z,97075.59
2019-06-08T05:41:31.615Z,97090.27
2019-06-08T05:43:57.416Z,97081.66
2019-06-08T05:46:23.218Z,97079.42
2019-06-08T05:48:51.012Z,97084.26
2019-06-08T05:51:16.942Z,97089.94
2019-06-08T05:53:50.285Z,97087.81
2019-06-08T05:56:16.215Z,97084.26
2019-06-08T05:58:42.015Z,97083.04
2019-06-08T06:01:07.822Z,97082.01
2019-06-08T06:03:33.632Z,97078.36
2019-06-08T06:05:59.703Z,97080.91
2019-06-08T06:08:25.753Z,97089.77
2019-06-08T06:10:54.456Z,97085.36
2019-06-08T06:13:20.283Z,97086.48
2019-06-08T06:15:49.100Z,97082.59
2019-06-08T06:18:14.904Z,97092.04
2019-06-08T06:20:45.268Z,97094.40
2019-06-08T06:23:11.200Z,97101.48
2019-06-08T06:25:37.291Z,97087.73
2019-06-08T06:28:06.300Z,97092.36
2019-06-08T06:30:32.636Z,97091.16
2019-06-08T06:32:58.727Z,97089.34
2019-06-08T06:35:24.539Z,97093.52
2019-06-08T06:37:50.365Z,97073.92
2019-06-08T06:40:16.172Z,97097.42
2019-06-08T06:42:45.950Z,97104.00
2019-06-08T06:45:12.147Z,97105.37
2019-06-08T06:47:37.957Z,97110.98
2019-06-08T06:50:04.672Z,97110.91
2019-06-08T06:52:33.232Z,97096.73
2019-06-08T06:54:59.309Z,97104.95
2019-06-08T06:57:28.132Z,97108.36
2019-06-08T06:59:54.235Z,97112.16
2019-06-08T07:02:23.219Z,97117.95
2019-06-08T07:04:49.952Z,97122.17
2019-06-08T07:07:18.843Z,97121.34
2019-06-08T07:09:44.637Z,97113.70
2019-06-08T07:12:10.710Z,97114.92
2019-06-08T07:14:36.535Z,97116.61
2019-06-08T07:17:02.818Z,97123.59
2019-06-08T07:19:28.633Z,97127.34
2019-06-08T07:21:54.800Z,97133.92
2019-06-08T07:24:23.415Z,97126.29
2019-06-08T07:26:50.430Z,97131.06
2019-06-08T07:29:19.371Z,97136.22
2019-06-08T07:31:45.197Z,97140.73
2019-06-08T07:34:12.601Z,97133.97
2019-06-08T07:36:38.724Z,97137.27
2019-06-08T07:39:07.831Z,97146.97
2019-06-08T07:41:33.794Z,97146.35
2019-06-08T07:44:02.842Z,97141.10
2019-06-08T07:46:30.663Z,97146.87
2019-06-08T07:49:01.704Z,97136.00
2019-06-08T07:51:27.809Z,97142.54
2019-06-08T07:53:53.648Z,97139.91
2019-06-08T07:56:21.600Z,97156.89
2019-06-08T07:58:49.547Z,97148.41
2019-06-08T08:01:15.153Z,97158.16
2019-06-08T08:03:40.956Z,97148.16
2019-06-08T08:06:06.991Z,97152.59
2019-06-08T08:08:32.792Z,97148.51
2019-06-08T08:10:58.846Z,97153.78
2019-06-08T08:13:24.683Z,97148.89
2019-06-08T08:15:55.045Z,97146.73
2019-06-08T08:18:21.597Z,97159.55
2019-06-08T08:20:49.340Z,97148.30
2019-06-08T08:23:17.286Z,97143.27
2019-06-08T08:25:42.998Z,97154.41
2019-06-08T08:28:09.107Z,97154.52
2019-06-08T08:30:37.539Z,97167.30
2019-06-08T08:33:03.600Z,97153.19
2019-06-08T08:35:29.650Z,97150.87
2019-06-08T08:38:00.483Z,97159.85
2019-06-08T08:40:23.567Z,97167.31
2019-06-08T08:42:50.586Z,97152.58
2019-06-08T08:45:18.295Z,97157.73
2019-06-08T08:47:44.207Z,97157.25
2019-06-08T08:50:10.220Z,97157.95
2019-06-08T08:52:40.924Z,97162.78
2019-06-08T08:55:08.350Z,97156.11
2019-06-08T08:57:34.713Z,97156.11
2019-06-08T09:00:03.494Z,97155.27
2019-06-08T09:02:28.290Z,97151.69
2019-06-08T09:04:55.247Z,97151.69
2019-06-08T09:07:21.168Z,97155.63
2019-06-08T09:09:48.214Z,97167.63
2019-06-08T09:12:14.369Z,97166.09
2019-06-08T09:14:41.587Z,97174.66
2019-06-08T09:17:08.720Z,97174.21
2019-06-08T09:19:34.758Z,97174.21
2019-06-08T09:22:02.723Z,97173.33
2019-06-08T09:24:28.926Z,97170.16
2019-06-08T09:26:56.753Z,97170.16
2019-06-08T09:29:24.246Z,97180.61
2019-06-08T09:31:50.092Z,97179.72
2019-06-08T09:34:19.647Z,97179.72
2019-06-08T09:36:47.795Z,97194.19
2019-06-08T09:39:13.821Z,97184.16
2019-06-08T09:41:39.805Z,97188.56
2019-06-08T09:44:10.617Z,97182.30
2019-06-08T09:46:33.632Z,97179.12
2019-06-08T09:49:04.758Z,97179.12
2019-06-08T09:51:28.567Z,97178.34
2019-06-08T09:53:55.897Z,97179.39
2019-06-08T09:56:22.623Z,97179.39
2019-06-08T09:58:51.351Z,97174.91
2019-06-08T10:01:18.294Z,97179.30
2019-06-08T10:03:43.855Z,97189.36
2019-06-08T10:06:12.450Z,97185.16
2019-06-08T10:08:38.816Z,97186.19
2019-06-08T10:11:06.041Z,97179.60
2019-06-08T10:13:32.593Z,97200.79
2019-06-08T10:16:01.758Z,97195.55
2019-06-08T10:18:28.340Z,97190.87
2019-06-08T10:20:54.754Z,97197.74
2019-06-08T10:23:30.740Z,97197.74
2019-06-08T10:25:48.359Z,97199.41
2019-06-08T10:28:18.527Z,97200.11
2019-06-08T10:30:41.916Z,97198.66
2019-06-08T10:33:10.087Z,97197.46
2019-06-08T10:35:38.095Z,97193.25
2019-06-08T10:38:07.967Z,97198.53
2019-06-08T10:40:31.800Z,97190.36
2019-06-08T10:43:00.704Z,97190.73
2019-06-08T10:45:25.455Z,97190.85
2019-06-08T10:47:51.238Z,97182.94
2019-06-08T10:50:19.230Z,97196.74
2019-06-08T10:52:45.270Z,97191.04
2019-06-08T10:55:12.210Z,97184.70
2019-06-08T10:57:38.335Z,97183.25
2019-06-08T11:00:18.048Z,97184.72
2019-06-08T11:02:37.583Z,97188.25
2019-06-08T11:05:10.014Z,97184.60
2019-06-08T11:07:33.366Z,97178.89
2019-06-08T11:10:00.253Z,97177.80
2019-06-08T11:12:28.314Z,97178.53
2019-06-08T11:14:54.253Z,97175.59
2019-06-08T11:17:20.324Z,97173.47
2019-06-08T11:19:48.011Z,97169.71
2019-06-08T11:22:15.007Z,97175.03
2019-06-08T11:24:41.425Z,97133.27
2019-06-08T11:27:10.602Z,97178.22
2019-06-08T11:29:34.960Z,97182.23
2019-06-08T11:32:02.042Z,97179.82
2019-06-08T11:34:28.741Z,97179.00
2019-06-08T11:36:54.645Z,97171.22
2019-06-08T11:39:20.459Z,97177.32
2019-06-08T11:41:48.386Z,97176.34
2019-06-08T11:44:14.960Z,97175.13
2019-06-08T11:46:42.694Z,97168.28
2019-06-08T11:49:14.351Z,97166.27
2019-06-08T11:51:37.874Z,97166.86
2019-06-08T11:54:05.046Z,97164.39
2019-06-08T11:56:32.216Z,97163.66
2019-06-08T11:59:01.083Z,97165.44
2019-06-08T12:01:27.714Z,97168.71
2019-06-08T12:03:53.905Z,97168.75
2019-06-08T12:06:23.365Z,97162.84
2019-06-08T12:08:47.918Z,97164.95
2019-06-08T12:11:18.125Z,97167.53
2019-06-08T12:13:41.602Z,97174.34
2019-06-08T12:16:11.639Z,97170.25
2019-06-08T12:18:35.211Z,97166.94
2019-06-08T12:21:01.586Z,97168.08
2019-06-08T12:23:27.710Z,97167.00
2019-06-08T12:25:53.492Z,97164.61
2019-06-08T12:28:19.578Z,97163.66
2019-06-08T12:30:47.684Z,97165.80
2019-06-08T12:33:15.307Z,97166.09
2019-06-08T12:35:41.254Z,97168.55
2019-06-08T12:38:09.579Z,97164.80
2019-06-08T12:40:35.001Z,97160.39
2019-06-08T12:43:00.809Z,97163.30
2019-06-08T12:45:27.623Z,97165.58
2019-06-08T12:47:53.529Z,97161.66
2019-06-08T12:50:20.077Z,97158.75
2019-06-08T12:52:47.636Z,97159.36
2019-06-08T12:55:19.424Z,97168.49
2019-06-08T12:57:41.642Z,97165.39
2019-06-08T13:00:09.756Z,97165.25
2019-06-08T13:02:38.255Z,97161.37
2019-06-08T13:05:04.895Z,97162.41
2019-06-08T13:07:30.950Z,97168.27
2019-06-08T13:09:58.321Z,97167.86
2019-06-08T13:12:24.530Z,97172.41
2019-06-08T13:14:50.669Z,97173.25
2019-06-08T13:17:19.302Z,97171.75
2019-06-08T13:19:44.375Z,97162.75
2019-06-08T13:22:10.783Z,97166.75
2019-06-08T13:24:37.636Z,97170.60
2019-06-08T13:27:03.916Z,97168.66
2019-06-08T13:29:30.001Z,97164.23
2019-06-08T13:31:58.612Z,97156.12
2019-06-08T13:34:24.600Z,97170.72
2019-06-08T13:36:53.208Z,97159.14
2019-06-08T13:39:21.227Z,97166.06
2019-06-08T13:41:48.214Z,97154.69
2019-06-08T13:44:14.101Z,97160.49
2019-06-08T13:46:41.715Z,97160.33
2019-06-08T13:49:08.289Z,97164.66
2019-06-08T13:51:38.405Z,97164.94
2019-06-08T13:54:04.472Z,97163.74
2019-06-08T13:56:30.292Z,97165.34
2019-06-08T13:58:56.129Z,97159.21
2019-06-08T14:01:22.212Z,97155.14
2019-06-08T14:03:50.035Z,97159.83
2019-06-08T14:06:18.279Z,97165.81
2019-06-08T14:08:44.187Z,97155.75
2019-06-08T14:11:10.009Z,97157.55
2019-06-08T14:13:38.074Z,97158.70
2019-06-08T14:16:04.033Z,97157.44
2019-06-08T14:18:34.320Z,97145.89
2019-06-08T14:21:00.324Z,97154.70
2019-06-08T14:23:26.127Z,97152.44
2019-06-08T14:25:56.750Z,97150.48
2019-06-08T14:28:22.898Z,97147.84
2019-06-08T14:30:48.852Z,97150.84
2019-06-08T14:33:14.965Z,97146.80
2019-06-08T14:35:41.073Z,97145.01
2019-06-08T14:38:07.122Z,97153.13
2019-06-08T14:40:33.263Z,97153.91
2019-06-08T14:42:59.274Z,97152.69
2019-06-08T14:45:30.852Z,97150.48
2019-06-08T14:47:56.030Z,97152.44
2019-06-08T14:50:22.932Z,97147.30
2019-06-08T14:52:50.435Z,97153.25
2019-06-08T14:55:19.811Z,97152.28
2019-06-08T14:57:44.034Z,97146.45
2019-06-08T15:00:14.728Z,97144.16
2019-06-08T15:02:40.529Z,97150.34
2019-06-08T15:05:07.871Z,97143.45
2019-06-08T15:07:34.060Z,97142.91
2019-06-08T15:09:59.877Z,97147.73
2019-06-08T15:12:28.055Z,97140.70
2019-06-08T15:14:53.351Z,97135.61
2019-06-08T15:17:19.512Z,97139.98
2019-06-08T15:19:47.401Z,97135.93
2019-06-08T15:22:13.102Z,97139.48
2019-06-08T15:24:38.920Z,97135.77
2019-06-08T15:27:08.134Z,97129.27
2019-06-08T15:29:33.973Z,97127.97
2019-06-08T15:32:03.339Z,97124.79
2019-06-08T15:34:31.156Z,97114.59
2019-06-08T15:36:57.549Z,97118.08
2019-06-08T15:39:23.802Z,97114.33
2019-06-08T15:41:53.004Z,97116.00
2019-06-08T15:44:21.423Z,97122.89
2019-06-08T15:46:52.592Z,97115.88
2019-06-08T15:49:18.699Z,97118.55
2019-06-08T15:51:44.584Z,97117.41
2019-06-08T15:54:10.391Z,97115.79
2019-06-08T15:56:48.141Z,97114.30
2019-06-08T15:59:03.928Z,97114.86
2019-06-08T16:01:29.749Z,97116.03
2019-06-08T16:03:55.609Z,97114.09
2019-06-08T16:06:21.734Z,97116.72
2019-06-08T16:08:47.582Z,97120.39
2019-06-08T16:11:13.391Z,97120.33
2019-06-08T16:13:43.251Z,97124.62
2019-06-08T16:16:09.075Z,97126.96
2019-06-08T16:18:37.634Z,97122.59
2019-06-08T16:21:03.548Z,97122.32
2019-06-08T16:23:29.972Z,97122.50
2019-06-08T16:25:56.118Z,97119.30
2019-06-08T16:28:21.922Z,97121.56
2019-06-08T16:30:49.089Z,97117.72
2019-06-08T16:33:14.911Z,97120.22
2019-06-08T16:35:42.751Z,97119.59
2019-06-08T16:38:08.567Z,97122.75
2019-06-08T16:40:41.405Z,97118.53
2019-06-08T16:43:07.212Z,97104.75
2019-06-08T16:45:33.385Z,97125.61
2019-06-08T16:47:59.501Z,97124.25
2019-06-08T16:50:28.578Z,97133.59
2019-06-08T16:52:54.461Z,97142.81
2019-06-08T16:55:23.221Z,97139.96
2019-06-08T16:57:49.280Z,97145.63
2019-06-08T17:00:30.846Z,97142.63
2019-06-08T17:02:46.632Z,97135.97
2019-06-08T17:05:12.814Z,97148.29
2019-06-08T17:07:39.755Z,97150.91
2019-06-08T17:10:06.287Z,97151.73
2019-06-08T17:12:32.832Z,97155.83
2019-06-08T17:14:58.688Z,97132.50
2019-06-08T17:17:24.804Z,97150.96
2019-06-08T17:19:50.597Z,97149.06
2019-06-08T17:22:19.477Z,97152.98
2019-06-08T17:24:45.523Z,97167.57
2019-06-08T17:27:26.350Z,97160.23
2019-06-08T17:29:41.876Z,97164.10
2019-06-08T17:32:07.704Z,97153.20
2019-06-08T17:34:34.931Z,97160.64
2019-06-08T17:37:01.262Z,97158.12
2019-06-08T17:39:29.488Z,97166.70
2019-06-08T17:41:55.465Z,97160.97
2019-06-08T17:44:21.520Z,97170.56
2019-06-08T17:46:47.346Z,97158.17
2019-06-08T17:49:14.579Z,97163.72
2019-06-08T17:51:41.852Z,97158.03
2019-06-08T17:54:08.956Z,97156.02
2019-06-08T17:56:35.467Z,97158.98
2019-06-08T17:59:04.381Z,97168.71
2019-06-08T18:01:37.708Z,97175.22
2019-06-08T18:04:02.461Z,97164.80
2019-06-08T18:06:28.507Z,97170.84
2019-06-08T18:08:54.336Z,97169.34
2019-06-08T18:11:20.170Z,97169.38
2019-06-08T18:13:48.376Z,97172.38
2019-06-08T18:16:14.003Z,97187.19
2019-06-08T18:18:41.866Z,97187.66
2019-06-08T18:21:08.133Z,97185.83
2019-06-08T18:23:34.362Z,97184.27
2019-06-08T18:26:00.197Z,97189.78
2019-06-08T18:28:27.867Z,97183.05
2019-06-08T18:30:53.820Z,97183.17
2019-06-08T18:33:19.885Z,97190.73
2019-06-08T18:35:49.669Z,97193.26
2019-06-08T18:38:17.785Z,97196.03
2019-06-08T18:40:43.483Z,97191.98
2019-06-08T18:43:09.390Z,97193.05
2019-06-08T18:45:41.483Z,97191.86
2019-06-08T18:48:07.190Z,97201.20
2019-06-08T18:50:33.290Z,97194.03
2019-06-08T18:52:59.360Z,97190.75
2019-06-08T18:55:27.532Z,97196.45
2019-06-08T18:57:53.178Z,97199.39
2019-06-08T19:00:22.800Z,97198.56
2019-06-08T19:02:50.058Z,97193.98
2019-06-08T19:05:20.825Z,97202.87
2019-06-08T19:07:45.441Z,97202.94
2019-06-08T19:10:15.833Z,97206.66
2019-06-08T19:12:42.874Z,97217.02
2019-06-08T19:15:11.441Z,97212.08
2019-06-08T19:17:45.784Z,97217.00
2019-06-08T19:20:05.017Z,97217.24
2019-06-08T19:22:30.841Z,97224.88
2019-06-08T19:24:56.621Z,97226.12
2019-06-08T19:27:22.724Z,97229.29
2019-06-08T19:29:51.414Z,97232.88
2019-06-08T19:32:17.076Z,97231.45
2019-06-08T19:34:43.930Z,97237.51
2019-06-08T19:37:11.330Z,97242.16
2019-06-08T19:39:39.619Z,97245.31
2019-06-08T19:42:04.929Z,97248.38
2019-06-08T19:44:30.737Z,97245.22
2019-06-08T19:46:57.467Z,97256.30
2019-06-08T19:49:23.401Z,97246.36
2019-06-08T19:51:53.802Z,97239.66
2019-06-08T19:54:18.234Z,97258.73
2019-06-08T19:56:47.713Z,97262.52
2019-06-08T19:59:12.054Z,97273.66
2019-06-08T20:01:37.991Z,97273.66
2019-06-08T20:04:03.863Z,97266.48
2019-06-08T20:06:29.679Z,97267.31
2019-06-08T20:08:57.498Z,97260.61
2019-06-08T20:11:23.258Z,97268.12
2019-06-08T20:13:50.416Z,97274.70
2019-06-08T20:16:17.424Z,97279.86
2019-06-08T20:18:43.632Z,97280.93
2019-06-08T20:21:11.902Z,97281.61
2019-06-08T20:23:38.234Z,97281.61
2019-06-08T20:26:04.333Z,97287.83
2019-06-08T20:28:30.149Z,97282.46
2019-06-08T20:31:01.036Z,97282.56
2019-06-08T20:33:27.311Z,97289.75
2019-06-08T20:35:54.314Z,97288.64
2019-06-08T20:38:34.001Z,97287.43
2019-06-08T20:40:48.140Z,97283.33
2019-06-08T20:43:14.020Z,97288.92
2019-06-08T20:45:39.854Z,97289.72
2019-06-08T20:48:06.035Z,97293.86
2019-06-08T20:50:31.855Z,97298.80
2019-06-08T20:53:00.477Z,97300.00
2019-06-08T20:55:28.224Z,97303.42
2019-06-08T20:57:57.615Z,97299.48
2019-06-08T21:00:23.604Z,97300.56
2019-06-08T21:02:51.496Z,97301.73
2019-06-08T21:05:18.249Z,97314.20
2019-06-08T21:07:45.453Z,97305.85
2019-06-08T21:10:12.423Z,97302.78
2019-06-08T21:12:41.408Z,97309.56
2019-06-08T21:15:07.469Z,97316.58
2019-06-08T21:17:33.284Z,97307.82
2019-06-08T21:19:59.072Z,97317.73
2019-06-08T21:22:24.903Z,97309.35
2019-06-08T21:24:53.670Z,97315.09
2019-06-08T21:27:18.669Z,97312.31
2019-06-08T21:29:55.437Z,97314.31
2019-06-08T21:32:17.587Z,97309.63
2019-06-08T21:34:42.920Z,97308.22
2019-06-08T21:37:09.157Z,97309.86
2019-06-08T21:39:38.556Z,97315.17
2019-06-08T21:42:03.492Z,97320.92
2019-06-08T21:44:30.879Z,97331.35
2019-06-08T21:46:59.889Z,97331.73
2019-06-08T21:49:24.620Z,97326.69
2019-06-08T21:51:51.930Z,97323.48
2019-06-08T21:54:18.129Z,97322.45
2019-06-08T21:56:44.169Z,97319.21
2019-06-08T21:59:10.016Z,97328.02
2019-06-08T22:01:37.671Z,97320.55
2019-06-08T22:04:04.024Z,97321.95
2019-06-08T22:06:32.907Z,97323.12
2019-06-08T22:09:01.225Z,97322.23
2019-06-08T22:11:26.739Z,97319.94
2019-06-08T22:13:52.811Z,97318.48
2019-06-08T22:16:21.766Z,97329.33
2019-06-08T22:18:47.618Z,97328.69
2019-06-08T22:21:18.111Z,97331.80
2019-06-08T22:23:43.857Z,97325.77
2019-06-08T22:26:10.024Z,97325.31
2019-06-08T22:28:37.728Z,97325.83
2019-06-08T22:31:03.883Z,97327.72
2019-06-08T22:33:29.713Z,97331.70
2019-06-08T22:35:58.572Z,97325.46
2019-06-08T22:38:23.502Z,97327.75
2019-06-08T22:40:49.335Z,97326.44
2019-06-08T22:43:20.406Z,97332.44
2019-06-08T22:45:47.942Z,97344.82
2019-06-08T22:48:13.680Z,97333.98
2019-06-08T22:50:39.507Z,97339.84
2019-06-08T22:53:08.323Z,97334.39
2019-06-08T22:55:34.125Z,97330.09
2019-06-08T22:58:03.040Z,97322.97
2019-06-08T23:00:29.470Z,97329.33
2019-06-08T23:02:56.758Z,97330.84
2019-06-08T23:05:22.969Z,97329.73
2019-06-08T23:07:48.943Z,97334.03
2019-06-08T23:10:17.379Z,97329.17
2019-06-08T23:12:43.009Z,97331.05
2019-06-08T23:15:09.113Z,97329.11
2019-06-08T23:17:34.932Z,97331.08
2019-06-08T23:20:06.197Z,97325.66
2019-06-08T23:22:32.681Z,97329.58
2019-06-08T23:25:01.096Z,97329.59
2019-06-08T23:27:27.195Z,97329.71
2019-06-08T23:29:53.000Z,97330.73
2019-06-08T23:32:19.102Z,97328.04
2019-06-08T23:34:47.783Z,97330.53
2019-06-08T23:37:14.198Z,97329.88
2019-06-08T23:39:40.419Z,97328.69
2019-06-08T23:42:06.255Z,97331.38
2019-06-08T23:44:32.088Z,97326.23
2019-06-08T23:46:59.755Z,97323.61
2019-06-08T23:49:27.819Z,97318.95
2019-06-08T23:51:53.597Z,97318.02
2019-06-08T23:54:19.700Z,97325.84
2019-06-08T23:56:48.260Z,97319.56
2019-06-08T23:59:14.065Z,97333.52
